sensor_id;sensor_type;location;lat;lon;timestamp;pressure;altitude;pressure_sealevel;temperature;humidity
6090;BME280;3073;42.660;23.316;2023-04-24T00:01:40;94268.00;;;22.60;38.48
6090;BME280;3073;42.660;23.316;2023-04-24T00:04:08;94260.03;;;22.86;39.09
6090;BME280;3073;42.660;23.316;2023-04-24T00:06:36;94250.78;;;23.30;38.57
6090;BME280;3073;42.660;23.316;2023-04-24T00:09:04;94249.56;;;23.60;38.08
6090;BME280;3073;42.660;23.316;2023-04-24T00:11:35;94250.81;;;23.09;38.57
6090;BME280;3073;42.660;23.316;2023-04-24T00:14:02;94237.13;;;23.33;38.38
6090;BME280;3073;42.660;23.316;2023-04-24T00:16:31;94236.69;;;23.31;38.54
6090;BME280;3073;42.660;23.316;2023-04-24T00:18:58;94231.63;;;23.14;38.50
6090;BME280;3073;42.660;23.316;2023-04-24T00:21:26;94233.72;;;23.53;37.76
6090;BME280;3073;42.660;23.316;2023-04-24T00:23:53;94236.13;;;23.70;38.13
6090;BME280;3073;42.660;23.316;2023-04-24T00:26:20;94235.59;;;23.89;38.06
6090;BME280;3073;42.660;23.316;2023-04-24T00:28:47;94243.28;;;23.85;37.63
6090;BME280;3073;42.660;23.316;2023-04-24T00:31:14;94235.47;;;23.61;38.23
6090;BME280;3073;42.660;23.316;2023-04-24T00:33:42;94237.53;;;23.80;37.60
6090;BME280;3073;42.660;23.316;2023-04-24T00:36:09;94235.91;;;23.75;38.35
6090;BME280;3073;42.660;23.316;2023-04-24T00:38:36;94244.53;;;23.88;37.65
6090;BME280;3073;42.660;23.316;2023-04-24T00:41:21;94237.22;;;22.62;39.68
6090;BME280;3073;42.660;23.316;2023-04-24T00:43:57;94232.94;;;22.66;39.33
6090;BME280;3073;42.660;23.316;2023-04-24T00:46:41;94228.84;;;23.64;38.07
6090;BME280;3073;42.660;23.316;2023-04-24T00:49:10;94235.59;;;23.77;37.61
6090;BME280;3073;42.660;23.316;2023-04-24T00:51:38;94230.25;;;23.85;37.37
6090;BME280;3073;42.660;23.316;2023-04-24T00:54:06;94233.13;;;24.04;37.21
6090;BME280;3073;42.660;23.316;2023-04-24T00:56:33;94232.03;;;23.36;37.85
6090;BME280;3073;42.660;23.316;2023-04-24T00:58:59;94238.31;;;21.10;41.78
6090;BME280;3073;42.660;23.316;2023-04-24T01:01:27;94235.25;;;20.90;42.28
6090;BME280;3073;42.660;23.316;2023-04-24T01:03:53;94242.00;;;21.64;41.46
6090;BME280;3073;42.660;23.316;2023-04-24T01:06:23;94231.28;;;22.41;40.28
6090;BME280;3073;42.660;23.316;2023-04-24T01:08:54;94224.41;;;22.98;39.59
6090;BME280;3073;42.660;23.316;2023-04-24T01:11:21;94227.63;;;23.16;39.70
6090;BME280;3073;42.660;23.316;2023-04-24T01:13:48;94223.19;;;23.49;39.33
6090;BME280;3073;42.660;23.316;2023-04-24T01:16:15;94214.25;;;23.38;39.94
6090;BME280;3073;42.660;23.316;2023-04-24T01:18:42;94198.22;;;23.16;39.74
6090;BME280;3073;42.660;23.316;2023-04-24T01:21:13;94203.00;;;22.81;40.47
6090;BME280;3073;42.660;23.316;2023-04-24T01:23:43;94201.06;;;22.90;40.74
6090;BME280;3073;42.660;23.316;2023-04-24T01:26:10;94195.72;;;22.03;40.51
6090;BME280;3073;42.660;23.316;2023-04-24T01:28:37;94202.59;;;21.99;41.19
6090;BME280;3073;42.660;23.316;2023-04-24T01:31:04;94207.38;;;21.97;40.53
6090;BME280;3073;42.660;23.316;2023-04-24T01:33:31;94192.00;;;22.34;40.61
6090;BME280;3073;42.660;23.316;2023-04-24T01:35:58;94201.97;;;22.02;40.39
6090;BME280;3073;42.660;23.316;2023-04-24T01:38:26;94198.28;;;22.33;40.02
6090;BME280;3073;42.660;23.316;2023-04-24T01:40:54;94198.53;;;22.61;39.79
6090;BME280;3073;42.660;23.316;2023-04-24T01:43:21;94190.16;;;22.55;40.11
6090;BME280;3073;42.660;23.316;2023-04-24T01:45:48;94198.06;;;22.67;39.34
6090;BME280;3073;42.660;23.316;2023-04-24T01:48:15;94197.47;;;22.41;39.54
6090;BME280;3073;42.660;23.316;2023-04-24T01:50:42;94199.50;;;22.56;39.11
6090;BME280;3073;42.660;23.316;2023-04-24T01:53:09;94189.47;;;21.96;40.29
6090;BME280;3073;42.660;23.316;2023-04-24T01:55:36;94190.72;;;22.19;39.97
6090;BME280;3073;42.660;23.316;2023-04-24T01:58:05;94190.56;;;22.45;39.79
6090;BME280;3073;42.660;23.316;2023-04-24T02:00:32;94192.09;;;20.77;42.73
6090;BME280;3073;42.660;23.316;2023-04-24T02:03:00;94191.47;;;20.80;43.25
6090;BME280;3073;42.660;23.316;2023-04-24T02:05:27;94189.47;;;21.96;41.55
6090;BME280;3073;42.660;23.316;2023-04-24T02:07:54;94188.25;;;22.23;41.13
6090;BME280;3073;42.660;23.316;2023-04-24T02:10:21;94197.28;;;20.77;43.21
6090;BME280;3073;42.660;23.316;2023-04-24T02:12:48;94193.44;;;21.00;43.10
6090;BME280;3073;42.660;23.316;2023-04-24T02:15:16;94181.00;;;21.78;41.81
6090;BME280;3073;42.660;23.316;2023-04-24T02:17:43;94188.28;;;21.93;41.34
6090;BME280;3073;42.660;23.316;2023-04-24T02:20:10;94190.56;;;21.86;41.41
6090;BME280;3073;42.660;23.316;2023-04-24T02:22:37;94185.47;;;22.07;41.10
6090;BME280;3073;42.660;23.316;2023-04-24T02:25:05;94189.69;;;21.91;41.47
6090;BME280;3073;42.660;23.316;2023-04-24T02:27:32;94190.16;;;21.76;41.30
6090;BME280;3073;42.660;23.316;2023-04-24T02:29:58;94187.91;;;21.28;41.65
6090;BME280;3073;42.660;23.316;2023-04-24T02:32:27;94175.59;;;21.54;41.35
6090;BME280;3073;42.660;23.316;2023-04-24T02:34:54;94172.50;;;21.98;40.60
6090;BME280;3073;42.660;23.316;2023-04-24T02:37:20;94174.84;;;22.12;40.57
6090;BME280;3073;42.660;23.316;2023-04-24T02:39:47;94160.00;;;22.21;40.36
6090;BME280;3073;42.660;23.316;2023-04-24T02:42:14;94164.91;;;21.55;41.14
6090;BME280;3073;42.660;23.316;2023-04-24T02:44:41;94162.28;;;21.64;40.88
6090;BME280;3073;42.660;23.316;2023-04-24T02:47:08;94163.38;;;20.99;41.77
6090;BME280;3073;42.660;23.316;2023-04-24T02:49:36;94153.28;;;21.06;41.71
6090;BME280;3073;42.660;23.316;2023-04-24T02:52:03;94152.34;;;21.95;40.27
6090;BME280;3073;42.660;23.316;2023-04-24T02:54:30;94157.38;;;22.00;40.01
6090;BME280;3073;42.660;23.316;2023-04-24T02:56:56;94153.06;;;22.04;40.04
6090;BME280;3073;42.660;23.316;2023-04-24T02:59:23;94164.03;;;20.88;41.92
6090;BME280;3073;42.660;23.316;2023-04-24T03:01:52;94158.25;;;21.37;41.46
6090;BME280;3073;42.660;23.316;2023-04-24T03:04:19;94175.75;;;20.94;42.41
6090;BME280;3073;42.660;23.316;2023-04-24T03:06:48;94171.44;;;21.62;41.79
6090;BME280;3073;42.660;23.316;2023-04-24T03:09:17;94170.38;;;21.25;42.49
6090;BME280;3073;42.660;23.316;2023-04-24T03:11:43;94180.19;;;20.93;43.92
6090;BME280;3073;42.660;23.316;2023-04-24T03:14:10;94170.09;;;21.00;44.23
6090;BME280;3073;42.660;23.316;2023-04-24T03:16:37;94172.72;;;21.47;43.39
6090;BME280;3073;42.660;23.316;2023-04-24T03:19:04;94182.13;;;21.05;43.48
6090;BME280;3073;42.660;23.316;2023-04-24T03:21:31;94175.91;;;20.72;44.21
6090;BME280;3073;42.660;23.316;2023-04-24T03:23:59;94177.72;;;19.24;48.20
6090;BME280;3073;42.660;23.316;2023-04-24T03:26:26;94174.47;;;19.49;47.62
6090;BME280;3073;42.660;23.316;2023-04-24T03:28:53;94175.31;;;20.66;45.35
6090;BME280;3073;42.660;23.316;2023-04-24T03:31:20;94175.91;;;20.29;45.85
6090;BME280;3073;42.660;23.316;2023-04-24T03:33:47;94179.59;;;20.45;46.05
6090;BME280;3073;42.660;23.316;2023-04-24T03:36:14;94181.78;;;21.32;44.18
6090;BME280;3073;42.660;23.316;2023-04-24T03:38:41;94174.13;;;21.36;44.09
6090;BME280;3073;42.660;23.316;2023-04-24T03:41:09;94175.31;;;21.47;43.75
6090;BME280;3073;42.660;23.316;2023-04-24T03:43:36;94170.28;;;21.42;43.48
6090;BME280;3073;42.660;23.316;2023-04-24T03:46:02;94173.63;;;20.87;44.89
6090;BME280;3073;42.660;23.316;2023-04-24T03:48:29;94169.38;;;20.31;45.82
6090;BME280;3073;42.660;23.316;2023-04-24T03:50:56;94168.09;;;21.06;44.72
6090;BME280;3073;42.660;23.316;2023-04-24T03:53:23;94170.28;;;21.42;43.54
6090;BME280;3073;42.660;23.316;2023-04-24T03:55:50;94176.31;;;21.63;43.13
6090;BME280;3073;42.660;23.316;2023-04-24T03:58:18;94173.78;;;21.84;43.03
6090;BME280;3073;42.660;23.316;2023-04-24T04:00:45;94175.03;;;21.78;42.89
6090;BME280;3073;42.660;23.316;2023-04-24T04:03:13;94177.16;;;20.74;44.65
6090;BME280;3073;42.660;23.316;2023-04-24T04:05:40;94177.69;;;21.05;44.36
6090;BME280;3073;42.660;23.316;2023-04-24T04:08:07;94176.13;;;21.77;43.01
6090;BME280;3073;42.660;23.316;2023-04-24T04:10:34;94183.78;;;21.27;43.74
6090;BME280;3073;42.660;23.316;2023-04-24T04:13:01;94175.63;;;21.83;43.00
6090;BME280;3073;42.660;23.316;2023-04-24T04:15:30;94175.25;;;22.23;41.69
6090;BME280;3073;42.660;23.316;2023-04-24T04:17:57;94175.81;;;22.49;41.43
6090;BME280;3073;42.660;23.316;2023-04-24T04:20:24;94174.06;;;22.62;41.12
6090;BME280;3073;42.660;23.316;2023-04-24T04:22:52;94177.50;;;21.74;41.67
6090;BME280;3073;42.660;23.316;2023-04-24T04:25:19;94185.19;;;20.98;43.20
6090;BME280;3073;42.660;23.316;2023-04-24T04:27:46;94185.19;;;21.24;42.51
6090;BME280;3073;42.660;23.316;2023-04-24T04:30:14;94174.97;;;22.45;40.80
6090;BME280;3073;42.660;23.316;2023-04-24T04:32:42;94182.66;;;22.12;40.95
6090;BME280;3073;42.660;23.316;2023-04-24T04:35:09;94181.91;;;22.12;41.44
6090;BME280;3073;42.660;23.316;2023-04-24T04:38:11;94184.09;;;22.30;40.59
6090;BME280;3073;42.660;23.316;2023-04-24T04:40:38;94192.47;;;21.77;41.22
6090;BME280;3073;42.660;23.316;2023-04-24T04:43:05;94196.25;;;21.50;41.96
6090;BME280;3073;42.660;23.316;2023-04-24T04:45:32;94197.47;;;21.44;42.17
6090;BME280;3073;42.660;23.316;2023-04-24T04:48:01;94206.25;;;21.14;42.18
6090;BME280;3073;42.660;23.316;2023-04-24T04:50:29;94210.84;;;20.40;43.64
6090;BME280;3073;42.660;23.316;2023-04-24T04:52:55;94202.28;;;21.63;42.24
6090;BME280;3073;42.660;23.316;2023-04-24T04:55:22;94211.69;;;21.38;42.91
6090;BME280;3073;42.660;23.316;2023-04-24T04:57:49;94216.09;;;21.46;42.34
6090;BME280;3073;42.660;23.316;2023-04-24T05:00:17;94209.19;;;21.88;41.52
6090;BME280;3073;42.660;23.316;2023-04-24T05:02:44;94209.56;;;22.37;40.52
6090;BME280;3073;42.660;23.316;2023-04-24T05:05:12;94210.28;;;22.87;40.13
6090;BME280;3073;42.660;23.316;2023-04-24T05:07:39;94209.81;;;23.06;39.67
6090;BME280;3073;42.660;23.316;2023-04-24T05:10:07;94212.13;;;23.20;39.01
6090;BME280;3073;42.660;23.316;2023-04-24T05:12:34;94206.56;;;23.09;38.95
6090;BME280;3073;42.660;23.316;2023-04-24T05:15:00;94216.59;;;22.98;38.75
6090;BME280;3073;42.660;23.316;2023-04-24T05:17:28;94211.66;;;23.38;37.46
6090;BME280;3073;42.660;23.316;2023-04-24T05:19:55;94223.84;;;23.58;37.22
6090;BME280;3073;42.660;23.316;2023-04-24T05:22:23;94214.59;;;23.49;36.88
6090;BME280;3073;42.660;23.316;2023-04-24T05:24:53;94225.72;;;23.58;36.75
6090;BME280;3073;42.660;23.316;2023-04-24T05:27:21;94218.66;;;23.71;36.95
6090;BME280;3073;42.660;23.316;2023-04-24T05:29:47;94214.75;;;23.89;36.76
6090;BME280;3073;42.660;23.316;2023-04-24T05:32:14;94210.28;;;24.38;36.01
6090;BME280;3073;42.660;23.316;2023-04-24T05:34:41;94220.97;;;24.21;36.03
6090;BME280;3073;42.660;23.316;2023-04-24T05:37:08;94209.34;;;24.18;35.94
6090;BME280;3073;42.660;23.316;2023-04-24T05:39:36;94212.56;;;24.91;35.08
6090;BME280;3073;42.660;23.316;2023-04-24T05:42:03;94214.25;;;24.99;34.66
6090;BME280;3073;42.660;23.316;2023-04-24T05:44:31;94228.28;;;25.23;34.78
6090;BME280;3073;42.660;23.316;2023-04-24T05:46:57;94213.66;;;24.78;35.09
6090;BME280;3073;42.660;23.316;2023-04-24T05:49:24;94222.75;;;25.40;34.31
6090;BME280;3073;42.660;23.316;2023-04-24T05:51:51;94218.91;;;25.49;34.12
6090;BME280;3073;42.660;23.316;2023-04-24T05:54:18;94222.66;;;25.21;34.12
6090;BME280;3073;42.660;23.316;2023-04-24T05:56:46;94212.28;;;25.08;34.11
6090;BME280;3073;42.660;23.316;2023-04-24T05:59:13;94216.75;;;25.67;33.82
6090;BME280;3073;42.660;23.316;2023-04-24T06:01:39;94218.84;;;25.93;33.80
6090;BME280;3073;42.660;23.316;2023-04-24T06:04:06;94211.06;;;26.28;33.05
6090;BME280;3073;42.660;23.316;2023-04-24T06:06:33;94210.72;;;26.83;32.15
6090;BME280;3073;42.660;23.316;2023-04-24T06:09:01;94211.50;;;27.26;31.99
6090;BME280;3073;42.660;23.316;2023-04-24T06:11:28;94212.53;;;27.86;31.47
6090;BME280;3073;42.660;23.316;2023-04-24T06:13:56;94218.44;;;27.79;31.24
6090;BME280;3073;42.660;23.316;2023-04-24T06:16:23;94213.66;;;28.07;30.99
6090;BME280;3073;42.660;23.316;2023-04-24T06:18:49;94207.59;;;28.30;30.99
6090;BME280;3073;42.660;23.316;2023-04-24T06:21:16;94215.34;;;29.08;30.37
6090;BME280;3073;42.660;23.316;2023-04-24T06:23:43;94219.00;;;29.00;30.09
6090;BME280;3073;42.660;23.316;2023-04-24T06:26:11;94215.47;;;29.23;29.39
6090;BME280;3073;42.660;23.316;2023-04-24T06:28:38;94213.00;;;29.33;29.79
6090;BME280;3073;42.660;23.316;2023-04-24T06:31:06;94216.63;;;29.58;29.38
6090;BME280;3073;42.660;23.316;2023-04-24T06:33:33;94218.69;;;29.39;29.79
6090;BME280;3073;42.660;23.316;2023-04-24T06:36:00;94214.91;;;29.36;29.91
6090;BME280;3073;42.660;23.316;2023-04-24T06:38:29;94212.97;;;29.70;28.90
6090;BME280;3073;42.660;23.316;2023-04-24T06:40:56;94216.75;;;28.99;29.68
6090;BME280;3073;42.660;23.316;2023-04-24T06:43:23;94215.44;;;29.16;30.14
6090;BME280;3073;42.660;23.316;2023-04-24T06:45:49;94224.56;;;28.65;30.14
6090;BME280;3073;42.660;23.316;2023-04-24T06:48:18;94225.75;;;28.98;30.17
6090;BME280;3073;42.660;23.316;2023-04-24T06:50:45;94225.59;;;27.59;31.05
6090;BME280;3073;42.660;23.316;2023-04-24T06:53:12;94226.59;;;26.55;32.52
6090;BME280;3073;42.660;23.316;2023-04-24T06:55:40;94223.09;;;27.44;31.86
6090;BME280;3073;42.660;23.316;2023-04-24T06:58:08;94221.00;;;27.53;31.89
6090;BME280;3073;42.660;23.316;2023-04-24T07:00:35;94215.06;;;27.56;31.52
6090;BME280;3073;42.660;23.316;2023-04-24T07:03:02;94206.28;;;28.43;30.71
6090;BME280;3073;42.660;23.316;2023-04-24T07:05:32;94204.84;;;29.08;29.61
6090;BME280;3073;42.660;23.316;2023-04-24T07:08:00;94212.44;;;29.17;29.86
6090;BME280;3073;42.660;23.316;2023-04-24T07:10:27;94213.16;;;29.91;29.44
6090;BME280;3073;42.660;23.316;2023-04-24T07:12:54;94202.38;;;30.79;28.11
6090;BME280;3073;42.660;23.316;2023-04-24T07:15:22;94207.91;;;30.53;27.87
6090;BME280;3073;42.660;23.316;2023-04-24T07:17:49;94208.56;;;31.11;28.03
6090;BME280;3073;42.660;23.316;2023-04-24T07:20:16;94208.06;;;30.81;28.11
6090;BME280;3073;42.660;23.316;2023-04-24T07:22:44;94204.50;;;30.42;28.26
6090;BME280;3073;42.660;23.316;2023-04-24T07:25:12;94196.53;;;31.25;27.85
6090;BME280;3073;42.660;23.316;2023-04-24T07:27:39;94192.44;;;31.48;27.49
6090;BME280;3073;42.660;23.316;2023-04-24T07:30:07;94198.13;;;32.18;26.77
6090;BME280;3073;42.660;23.316;2023-04-24T07:32:34;94194.47;;;30.72;27.76
6090;BME280;3073;42.660;23.316;2023-04-24T07:35:01;94185.34;;;30.48;28.20
6090;BME280;3073;42.660;23.316;2023-04-24T07:37:28;94186.41;;;32.29;26.74
6090;BME280;3073;42.660;23.316;2023-04-24T07:39:58;94192.47;;;33.27;25.67
6090;BME280;3073;42.660;23.316;2023-04-24T07:42:25;94186.81;;;33.80;25.22
6090;BME280;3073;42.660;23.316;2023-04-24T07:44:52;94190.47;;;33.97;25.43
6090;BME280;3073;42.660;23.316;2023-04-24T07:47:19;94185.41;;;34.09;25.12
6090;BME280;3073;42.660;23.316;2023-04-24T07:49:46;94181.03;;;32.72;26.30
6090;BME280;3073;42.660;23.316;2023-04-24T07:52:13;94180.84;;;33.03;25.95
6090;BME280;3073;42.660;23.316;2023-04-24T07:54:39;94173.75;;;32.86;26.40
6090;BME280;3073;42.660;23.316;2023-04-24T07:57:08;94172.31;;;32.78;26.33
6090;BME280;3073;42.660;23.316;2023-04-24T07:59:34;94170.06;;;33.46;25.29
6090;BME280;3073;42.660;23.316;2023-04-24T08:02:01;94175.00;;;34.70;24.55
6090;BME280;3073;42.660;23.316;2023-04-24T08:04:28;94174.66;;;33.86;25.14
6090;BME280;3073;42.660;23.316;2023-04-24T08:06:55;94173.66;;;34.18;24.99
6090;BME280;3073;42.660;23.316;2023-04-24T08:09:22;94165.19;;;34.97;24.55
6090;BME280;3073;42.660;23.316;2023-04-24T08:11:49;94166.00;;;34.94;24.35
6090;BME280;3073;42.660;23.316;2023-04-24T08:14:17;94161.94;;;33.19;25.41
6090;BME280;3073;42.660;23.316;2023-04-24T08:16:44;94158.22;;;35.07;24.42
6090;BME280;3073;42.660;23.316;2023-04-24T08:19:11;94158.06;;;32.37;26.19
6090;BME280;3073;42.660;23.316;2023-04-24T08:21:38;94170.13;;;33.87;25.33
6090;BME280;3073;42.660;23.316;2023-04-24T08:24:05;94159.22;;;34.90;24.38
6090;BME280;3073;42.660;23.316;2023-04-24T08:26:33;94154.66;;;32.40;25.67
6090;BME280;3073;42.660;23.316;2023-04-24T08:29:00;94156.41;;;32.89;25.56
6090;BME280;3073;42.660;23.316;2023-04-24T08:31:29;94154.03;;;31.72;26.70
6090;BME280;3073;42.660;23.316;2023-04-24T08:33:56;94158.13;;;31.98;26.63
6090;BME280;3073;42.660;23.316;2023-04-24T08:36:22;94152.47;;;33.18;26.20
6090;BME280;3073;42.660;23.316;2023-04-24T08:38:49;94151.34;;;32.04;26.88
6090;BME280;3073;42.660;23.316;2023-04-24T08:41:18;94149.56;;;34.01;25.43
6090;BME280;3073;42.660;23.316;2023-04-24T08:43:46;94137.94;;;34.93;24.06
6090;BME280;3073;42.660;23.316;2023-04-24T08:46:13;94141.06;;;34.54;24.10
6090;BME280;3073;42.660;23.316;2023-04-24T08:48:43;94128.16;;;34.56;24.75
6090;BME280;3073;42.660;23.316;2023-04-24T08:51:11;94128.91;;;34.57;25.24
6090;BME280;3073;42.660;23.316;2023-04-24T08:53:38;94130.84;;;35.17;24.30
6090;BME280;3073;42.660;23.316;2023-04-24T08:56:05;94125.69;;;33.12;25.35
6090;BME280;3073;42.660;23.316;2023-04-24T08:58:32;94124.41;;;33.31;25.73
6090;BME280;3073;42.660;23.316;2023-04-24T09:01:00;94120.91;;;35.21;24.26
6090;BME280;3073;42.660;23.316;2023-04-24T09:03:28;94121.41;;;35.39;23.73
6090;BME280;3073;42.660;23.316;2023-04-24T09:06:00;94118.22;;;35.94;23.74
6090;BME280;3073;42.660;23.316;2023-04-24T09:08:28;94120.53;;;37.10;23.10
6090;BME280;3073;42.660;23.316;2023-04-24T09:10:55;94116.72;;;37.11;23.01
6090;BME280;3073;42.660;23.316;2023-04-24T09:13:24;94107.53;;;33.07;25.26
6090;BME280;3073;42.660;23.316;2023-04-24T09:15:51;94104.13;;;32.38;26.27
6090;BME280;3073;42.660;23.316;2023-04-24T09:18:18;94106.84;;;32.96;25.63
6090;BME280;3073;42.660;23.316;2023-04-24T09:20:58;94097.38;;;34.36;24.85
6090;BME280;3073;42.660;23.316;2023-04-24T09:23:26;94097.22;;;34.80;24.27
6090;BME280;3073;42.660;23.316;2023-04-24T09:25:54;94091.72;;;34.94;24.65
6090;BME280;3073;42.660;23.316;2023-04-24T09:28:25;94089.75;;;33.19;25.67
6090;BME280;3073;42.660;23.316;2023-04-24T09:31:07;94089.53;;;31.24;27.35
6090;BME280;3073;42.660;23.316;2023-04-24T09:33:34;94085.63;;;30.47;28.22
6090;BME280;3073;42.660;23.316;2023-04-24T09:36:03;94082.72;;;31.93;27.11
6090;BME280;3073;42.660;23.316;2023-04-24T09:38:32;94083.31;;;33.68;25.58
6090;BME280;3073;42.660;23.316;2023-04-24T09:41:01;94080.50;;;32.86;26.24
6090;BME280;3073;42.660;23.316;2023-04-24T09:43:29;94087.78;;;34.79;24.90
6090;BME280;3073;42.660;23.316;2023-04-24T09:45:57;94084.19;;;35.89;23.58
6090;BME280;3073;42.660;23.316;2023-04-24T09:48:31;94081.31;;;36.79;22.98
6090;BME280;3073;42.660;23.316;2023-04-24T09:50:58;94073.94;;;35.68;23.75
6090;BME280;3073;42.660;23.316;2023-04-24T09:53:27;94083.78;;;33.96;25.02
6090;BME280;3073;42.660;23.316;2023-04-24T09:55:54;94078.75;;;32.58;26.01
6090;BME280;3073;42.660;23.316;2023-04-24T09:58:25;94080.28;;;32.59;26.13
6090;BME280;3073;42.660;23.316;2023-04-24T10:00:53;94068.16;;;32.65;25.83
6090;BME280;3073;42.660;23.316;2023-04-24T10:03:20;94062.84;;;34.12;24.26
6090;BME280;3073;42.660;23.316;2023-04-24T10:05:47;94059.03;;;34.74;23.43
6090;BME280;3073;42.660;23.316;2023-04-24T10:08:14;94059.34;;;36.75;23.16
6090;BME280;3073;42.660;23.316;2023-04-24T10:10:43;94042.16;;;37.60;22.08
6090;BME280;3073;42.660;23.316;2023-04-24T10:13:12;94047.88;;;36.61;22.58
6090;BME280;3073;42.660;23.316;2023-04-24T10:15:41;94041.72;;;37.49;22.33
6090;BME280;3073;42.660;23.316;2023-04-24T10:18:09;94031.09;;;37.61;22.29
6090;BME280;3073;42.660;23.316;2023-04-24T10:20:37;94030.84;;;38.01;22.01
6090;BME280;3073;42.660;23.316;2023-04-24T10:23:04;94021.16;;;35.00;23.42
6090;BME280;3073;42.660;23.316;2023-04-24T10:25:32;94016.44;;;34.61;23.80
6090;BME280;3073;42.660;23.316;2023-04-24T10:28:02;94016.66;;;37.46;22.48
6090;BME280;3073;42.660;23.316;2023-04-24T10:30:30;94014.38;;;36.08;22.60
6090;BME280;3073;42.660;23.316;2023-04-24T10:33:00;94006.25;;;36.87;22.18
6090;BME280;3073;42.660;23.316;2023-04-24T10:35:30;94015.69;;;37.98;21.56
6090;BME280;3073;42.660;23.316;2023-04-24T10:37:59;94012.28;;;38.39;21.53
6090;BME280;3073;42.660;23.316;2023-04-24T10:40:31;94010.84;;;39.35;20.45
6090;BME280;3073;42.660;23.316;2023-04-24T10:42:58;94004.59;;;39.85;20.17
6090;BME280;3073;42.660;23.316;2023-04-24T10:45:26;93998.72;;;40.43;19.65
6090;BME280;3073;42.660;23.316;2023-04-24T10:47:57;93999.25;;;40.29;19.43
6090;BME280;3073;42.660;23.316;2023-04-24T10:50:27;93993.25;;;40.86;19.29
6090;BME280;3073;42.660;23.316;2023-04-24T10:53:05;93990.25;;;39.36;19.93
6090;BME280;3073;42.660;23.316;2023-04-24T10:55:43;93982.25;;;39.10;19.81
6090;BME280;3073;42.660;23.316;2023-04-24T10:58:10;93987.13;;;36.92;21.28
6090;BME280;3073;42.660;23.316;2023-04-24T11:00:39;93981.25;;;36.33;21.71
6090;BME280;3073;42.660;23.316;2023-04-24T11:03:07;93977.34;;;34.39;23.84
6090;BME280;3073;42.660;23.316;2023-04-24T11:05:53;93980.31;;;34.71;23.34
6090;BME280;3073;42.660;23.316;2023-04-24T11:08:25;93977.50;;;34.55;23.54
6090;BME280;3073;42.660;23.316;2023-04-24T11:10:58;93971.03;;;34.56;23.73
6090;BME280;3073;42.660;23.316;2023-04-24T11:13:26;93970.78;;;34.74;23.55
6090;BME280;3073;42.660;23.316;2023-04-24T11:16:14;93975.53;;;35.12;23.63
6090;BME280;3073;42.660;23.316;2023-04-24T11:18:42;93979.13;;;35.22;24.02
6090;BME280;3073;42.660;23.316;2023-04-24T11:21:12;93987.25;;;33.26;24.66
6090;BME280;3073;42.660;23.316;2023-04-24T11:23:39;93984.72;;;30.29;27.40
6090;BME280;3073;42.660;23.316;2023-04-24T11:26:11;93993.59;;;29.24;29.33
6090;BME280;3073;42.660;23.316;2023-04-24T11:28:45;94012.59;;;27.40;32.28
6090;BME280;3073;42.660;23.316;2023-04-24T11:31:35;94017.19;;;25.25;35.53
6090;BME280;3073;42.660;23.316;2023-04-24T11:34:10;94020.97;;;26.77;35.03
6090;BME280;3073;42.660;23.316;2023-04-24T11:36:37;94020.09;;;26.08;34.25
6090;BME280;3073;42.660;23.316;2023-04-24T11:39:04;94016.47;;;26.55;34.81
6090;BME280;3073;42.660;23.316;2023-04-24T11:41:32;94003.81;;;25.99;35.13
6090;BME280;3073;42.660;23.316;2023-04-24T11:44:00;94011.34;;;25.16;35.61
6090;BME280;3073;42.660;23.316;2023-04-24T11:46:28;94010.06;;;25.76;36.71
6090;BME280;3073;42.660;23.316;2023-04-24T11:48:57;94007.41;;;25.22;37.95
6090;BME280;3073;42.660;23.316;2023-04-24T11:51:25;94001.16;;;26.34;38.95
6090;BME280;3073;42.660;23.316;2023-04-24T11:53:53;93988.78;;;27.26;36.57
6090;BME280;3073;42.660;23.316;2023-04-24T11:56:21;93986.94;;;27.79;36.57
6090;BME280;3073;42.660;23.316;2023-04-24T11:58:48;93984.19;;;26.70;37.36
6090;BME280;3073;42.660;23.316;2023-04-24T12:01:15;93980.50;;;27.20;35.81
6090;BME280;3073;42.660;23.316;2023-04-24T12:03:47;93977.38;;;27.11;36.68
6090;BME280;3073;42.660;23.316;2023-04-24T12:06:16;93977.38;;;28.67;33.29
6090;BME280;3073;42.660;23.316;2023-04-24T12:08:46;93959.94;;;28.92;32.22
6090;BME280;3073;42.660;23.316;2023-04-24T12:11:15;93960.63;;;30.23;31.63
6090;BME280;3073;42.660;23.316;2023-04-24T12:13:43;93970.09;;;31.62;30.85
6090;BME280;3073;42.660;23.316;2023-04-24T12:16:11;93972.41;;;31.25;28.79
6090;BME280;3073;42.660;23.316;2023-04-24T12:18:43;93961.09;;;30.68;29.56
6090;BME280;3073;42.660;23.316;2023-04-24T12:21:16;93968.13;;;31.84;28.38
6090;BME280;3073;42.660;23.316;2023-04-24T12:23:44;93955.97;;;32.07;28.62
6090;BME280;3073;42.660;23.316;2023-04-24T12:26:11;93954.53;;;32.65;27.53
6090;BME280;3073;42.660;23.316;2023-04-24T12:28:52;93942.44;;;33.08;27.18
6090;BME280;3073;42.660;23.316;2023-04-24T12:31:21;93927.63;;;34.20;26.33
6090;BME280;3073;42.660;23.316;2023-04-24T12:33:47;93934.38;;;33.63;26.36
6090;BME280;3073;42.660;23.316;2023-04-24T12:36:16;93936.16;;;32.40;26.98
6090;BME280;3073;42.660;23.316;2023-04-24T12:38:43;93927.53;;;30.11;29.60
6090;BME280;3073;42.660;23.316;2023-04-24T12:41:13;93923.63;;;29.77;29.60
6090;BME280;3073;42.660;23.316;2023-04-24T12:43:51;93909.50;;;30.35;29.72
6090;BME280;3073;42.660;23.316;2023-04-24T12:46:18;93904.94;;;31.41;28.91
6090;BME280;3073;42.660;23.316;2023-04-24T12:48:46;93897.34;;;31.61;28.70
6090;BME280;3073;42.660;23.316;2023-04-24T12:51:13;93901.88;;;32.30;28.32
6090;BME280;3073;42.660;23.316;2023-04-24T12:53:41;93898.13;;;33.57;27.14
6090;BME280;3073;42.660;23.316;2023-04-24T12:56:08;93877.56;;;33.72;27.34
6090;BME280;3073;42.660;23.316;2023-04-24T12:58:35;93876.25;;;31.47;27.95
6090;BME280;3073;42.660;23.316;2023-04-24T13:01:05;93867.75;;;30.37;28.55
6090;BME280;3073;42.660;23.316;2023-04-24T13:03:37;93862.16;;;28.58;30.44
6090;BME280;3073;42.660;23.316;2023-04-24T13:06:06;93857.38;;;27.87;31.25
6090;BME280;3073;42.660;23.316;2023-04-24T13:08:33;93851.00;;;29.41;29.88
6090;BME280;3073;42.660;23.316;2023-04-24T13:11:02;93850.81;;;30.24;29.15
6090;BME280;3073;42.660;23.316;2023-04-24T13:13:28;93845.75;;;33.07;26.57
6090;BME280;3073;42.660;23.316;2023-04-24T13:15:56;93849.75;;;34.13;25.56